Time;durP1;ratioP1;P1;durP2;ratioP2;P2;SDS_P1;SDS_P2;PMS_P1;PMS_P2;Temp;Humidity;BMP_temperature;BMP_pressure;BME280_temperature;BME280_humidity;BME280_pressure;Samples;Min_cycle;Max_cycle;Signal;HPM_P1;HPM_P2
2024/01/29 00:01:23;;;;;;;2.47;1.90;;;;;;;;;;5023027;28;20187;-55
2024/01/29 00:03:50;;;;;;;2.30;1.90;;;;;;;;;;5016625;28;20208;-55
2024/01/29 00:06:16;;;;;;;2.03;1.70;;;;;;;;;;5020245;28;20648;-55
2024/01/29 00:08:42;;;;;;;;;;;;;;;;;;5019714;28;20205;-54
2024/01/29 00:11:08;;;;;;;;;;;;;;;;;;5014861;28;19935;-56
2024/01/29 00:13:33;;;;;;;;;;;;;;;;;;5018690;28;21492;-55
2024/01/29 00:16:00;;;;;;;1.95;1.75;;;;;;;;;;5020232;28;20400;-55
2024/01/29 00:18:26;;;;;;;2.43;1.80;;;;;;;;;;5028174;28;20269;-55
2024/01/29 00:20:52;;;;;;;2.07;1.80;;;;;;;;;;5016852;28;20203;-55
2024/01/29 00:23:18;;;;;;;2.17;1.70;;;;;;;;;;5025125;28;20172;-54
2024/01/29 00:25:46;;;;;;;2.80;1.87;;;;;;;;;;5012560;28;20700;-56
2024/01/29 00:28:12;;;;;;;2.23;2.03;;;;;;;;;;5019171;28;20186;-54
2024/01/29 00:30:38;;;;;;;1.90;1.70;;;;;;;;;;5026344;28;20189;-55
2024/01/29 00:33:04;;;;;;;2.20;2.00;;;;;;;;;;5019144;28;20582;-54
2024/01/29 00:35:30;;;;;;;2.17;1.80;;;;;;;;;;5016779;28;20781;-55
2024/01/29 00:37:56;;;;;;;2.27;1.90;;;;;;;;;;5020878;28;20178;-56
2024/01/29 00:40:24;;;;;;;3.57;2.10;;;;;;;;;;5018694;28;20248;-58
2024/01/29 00:42:50;;;;;;;3.10;2.07;;;;;;;;;;5020228;28;20243;-57
2024/01/29 00:45:16;;;;;;;4.13;2.13;;;;;;;;;;5023576;28;20715;-57
2024/01/29 00:47:42;;;;;;;2.63;1.83;;;;;;;;;;5022409;28;20249;-58
2024/01/29 00:50:08;;;;;;;3.87;2.30;;;;;;;;;;5016848;28;20260;-57
2024/01/29 00:52:34;;;;;;;2.27;1.90;;;;;;;;;;5020256;28;20210;-57
2024/01/29 00:55:00;;;;;;;1.80;1.70;;;;;;;;;;5015319;28;20210;-57
2024/01/29 00:57:26;;;;;;;2.20;1.70;;;;;;;;;;5019086;28;20163;-58
2024/01/29 00:59:55;;;;;;;2.43;2.17;;;;;;;;;;5017512;28;20650;-57
2024/01/29 01:02:21;;;;;;;1.90;1.60;;;;;;;;;;5017253;28;20175;-58
2024/01/29 01:04:47;;;;;;;3.17;1.97;;;;;;;;;;5017293;28;20236;-57
2024/01/29 01:07:13;;;;;;;2.27;1.87;;;;;;;;;;5022520;28;20196;-57
2024/01/29 01:09:39;;;;;;;2.33;1.97;;;;;;;;;;5022276;28;20181;-57
2024/01/29 01:12:05;;;;;;;2.50;2.13;;;;;;;;;;5025971;28;20589;-57
2024/01/29 01:14:31;;;;;;;2.20;2.00;;;;;;;;;;5025808;28;20217;-58
2024/01/29 01:16:57;;;;;;;1.70;1.60;;;;;;;;;;5019270;28;20194;-58
2024/01/29 01:19:23;;;;;;;2.57;2.30;;;;;;;;;;5009906;28;20182;-57
2024/01/29 01:21:49;;;;;;;2.53;1.97;;;;;;;;;;5014674;28;20261;-57
2024/01/29 01:24:15;;;;;;;2.20;1.97;;;;;;;;;;5022407;28;20170;-58
2024/01/29 01:26:41;;;;;;;2.37;2.00;;;;;;;;;;5015083;28;20190;-57
2024/01/29 01:29:07;;;;;;;3.00;1.77;;;;;;;;;;5017712;28;20583;-57
2024/01/29 01:31:33;;;;;;;2.20;1.80;;;;;;;;;;5018240;28;20182;-57
2024/01/29 01:33:59;;;;;;;2.23;1.80;;;;;;;;;;5026237;28;20197;-58
2024/01/29 01:36:25;;;;;;;2.30;2.10;;;;;;;;;;5020900;28;20205;-57
2024/01/29 01:38:52;;;;;;;2.23;2.03;;;;;;;;;;5019128;28;20228;-57
2024/01/29 01:41:18;;;;;;;2.13;1.77;;;;;;;;;;5022476;28;20672;-56
2024/01/29 01:43:44;;;;;;;2.30;1.90;;;;;;;;;;5019794;28;20311;-57
2024/01/29 01:46:10;;;;;;;3.00;2.10;;;;;;;;;;5021729;28;20234;-57
2024/01/29 01:48:36;;;;;;;3.07;1.87;;;;;;;;;;5016761;28;20183;-57
2024/01/29 01:51:04;;;;;;;2.70;1.70;;;;;;;;;;5011059;28;20286;-56
2024/01/29 01:53:32;;;;;;;2.70;2.20;;;;;;;;;;5019299;28;20649;-55
2024/01/29 01:55:59;;;;;;;2.00;1.80;;;;;;;;;;5017906;28;20209;-55
2024/01/29 01:58:25;;;;;;;2.67;2.00;;;;;;;;;;5024419;28;20166;-55
2024/01/29 02:00:51;;;;;;;2.17;2.07;;;;;;;;;;5018540;28;20201;-54
2024/01/29 02:03:17;;;;;;;3.10;1.93;;;;;;;;;;5018082;28;20673;-54
2024/01/29 02:05:43;;;;;;;1.90;1.73;;;;;;;;;;5011239;28;20179;-55
2024/01/29 02:08:09;;;;;;;4.30;2.20;;;;;;;;;;5018289;28;20185;-55
2024/01/29 02:10:36;;;;;;;2.73;1.90;;;;;;;;;;5019419;28;20185;-54
2024/01/29 02:13:02;;;;;;;2.70;1.80;;;;;;;;;;5015703;28;20344;-55
2024/01/29 02:15:28;;;;;;;;;;;;;;;;;;5020163;28;20681;-55
2024/01/29 02:17:53;;;;;;;;;;;;;;;;;;5018272;28;20004;-55
2024/01/29 02:20:20;;;;;;;;;;;;;;;;;;5023059;28;19935;-55
2024/01/29 02:22:46;;;;;;;2.30;2.00;;;;;;;;;;5025979;28;19921;-56
2024/01/29 02:25:15;;;;;;;2.30;2.03;;;;;;;;;;5011259;28;20180;-55
2024/01/29 02:27:41;;;;;;;2.60;1.87;;;;;;;;;;5022566;28;20541;-55
2024/01/29 02:30:07;;;;;;;3.37;2.13;;;;;;;;;;5017904;28;20181;-54
2024/01/29 02:32:34;;;;;;;4.23;2.30;;;;;;;;;;5018109;28;20231;-55
2024/01/29 02:35:00;;;;;;;2.27;1.73;;;;;;;;;;5022661;28;20719;-54
2024/01/29 02:37:26;;;;;;;2.00;1.80;;;;;;;;;;5016266;28;20178;-55
2024/01/29 02:39:52;;;;;;;2.40;2.20;;;;;;;;;;5021238;28;20275;-56
2024/01/29 02:42:18;;;;;;;3.13;2.17;;;;;;;;;;5016188;28;20755;-54
2024/01/29 02:44:46;;;;;;;2.30;2.10;;;;;;;;;;5025156;28;20177;-54
2024/01/29 02:47:12;;;;;;;3.47;1.97;;;;;;;;;;5016956;28;20225;-55
2024/01/29 02:49:38;;;;;;;1.90;1.80;;;;;;;;;;5019393;28;20664;-55
2024/01/29 02:52:04;;;;;;;2.33;2.13;;;;;;;;;;5021474;28;20316;-55
2024/01/29 02:54:30;;;;;;;2.37;1.93;;;;;;;;;;5023403;28;20201;-55
2024/01/29 02:56:56;;;;;;;2.00;1.80;;;;;;;;;;5024806;28;20243;-55
2024/01/29 02:59:22;;;;;;;3.57;2.40;;;;;;;;;;5020086;28;20229;-55
2024/01/29 03:01:48;;;;;;;2.63;1.90;;;;;;;;;;5017936;28;20616;-54
2024/01/29 03:04:14;;;;;;;2.30;2.10;;;;;;;;;;5029472;28;20583;-54
2024/01/29 03:06:40;;;;;;;3.23;2.30;;;;;;;;;;5028401;28;20248;-54
2024/01/29 03:09:06;;;;;;;1.97;1.57;;;;;;;;;;5018594;28;20253;-54
2024/01/29 03:11:32;;;;;;;2.57;2.10;;;;;;;;;;5020005;28;20485;-54
2024/01/29 03:13:58;;;;;;;3.33;1.90;;;;;;;;;;5019227;28;20194;-55
2024/01/29 03:16:24;;;;;;;2.30;2.00;;;;;;;;;;5018295;28;20193;-54
2024/01/29 03:18:50;;;;;;;2.70;2.07;;;;;;;;;;5022612;28;20717;-54
2024/01/29 03:21:16;;;;;;;2.40;2.20;;;;;;;;;;5016821;28;20249;-54
2024/01/29 03:23:42;;;;;;;3.07;2.10;;;;;;;;;;5017005;28;20190;-54
2024/01/29 03:26:08;;;;;;;2.77;1.90;;;;;;;;;;5023453;28;20178;-53
2024/01/29 03:28:34;;;;;;;2.13;1.93;;;;;;;;;;5026534;28;20178;-54
2024/01/29 03:31:00;;;;;;;2.47;2.23;;;;;;;;;;5018124;28;20181;-53
2024/01/29 03:33:26;;;;;;;2.83;2.00;;;;;;;;;;5017648;28;20190;-54
2024/01/29 03:35:52;;;;;;;3.90;2.10;;;;;;;;;;5018464;28;20190;-56
2024/01/29 03:38:18;;;;;;;2.13;1.90;;;;;;;;;;5021907;28;20626;-54
2024/01/29 03:40:46;;;;;;;2.80;1.93;;;;;;;;;;5021245;28;20258;-54
2024/01/29 03:43:12;;;;;;;4.03;1.70;;;;;;;;;;5019512;28;20202;-55
2024/01/29 03:45:38;;;;;;;2.07;1.97;;;;;;;;;;5028978;28;20533;-53
2024/01/29 03:48:04;;;;;;;2.10;1.90;;;;;;;;;;5016542;28;20673;-53
2024/01/29 03:50:30;;;;;;;2.27;2.07;;;;;;;;;;5024028;28;20209;-54
2024/01/29 03:52:56;;;;;;;2.47;2.23;;;;;;;;;;5024641;28;20205;-54
2024/01/29 03:55:22;;;;;;;1.77;1.67;;;;;;;;;;5019985;28;21086;-54
2024/01/29 03:57:48;;;;;;;2.20;1.90;;;;;;;;;;5020142;28;20551;-55
2024/01/29 04:00:18;;;;;;;2.40;1.97;;;;;;;;;;5018927;28;20171;-55
2024/01/29 04:02:46;;;;;;;2.50;2.10;;;;;;;;;;5024529;28;20180;-55
2024/01/29 04:05:12;;;;;;;3.57;1.87;;;;;;;;;;5021549;28;20192;-55
2024/01/29 04:07:38;;;;;;;2.80;2.20;;;;;;;;;;5020994;28;20646;-54
2024/01/29 04:10:04;;;;;;;1.97;1.73;;;;;;;;;;5021355;28;20235;-55
2024/01/29 04:12:30;;;;;;;2.27;1.90;;;;;;;;;;5025451;28;20186;-55
2024/01/29 04:14:56;;;;;;;2.83;1.90;;;;;;;;;;5022575;28;20284;-55
2024/01/29 04:17:22;;;;;;;2.17;1.97;;;;;;;;;;5021944;28;20202;-55
2024/01/29 04:19:48;;;;;;;3.23;2.20;;;;;;;;;;5016752;28;20186;-55
2024/01/29 04:22:14;;;;;;;2.13;1.97;;;;;;;;;;5023883;28;20186;-55
2024/01/29 04:24:40;;;;;;;3.20;2.07;;;;;;;;;;5012718;28;20549;-55
2024/01/29 04:27:06;;;;;;;3.10;1.83;;;;;;;;;;5021350;28;20203;-55
2024/01/29 04:29:32;;;;;;;1.90;1.80;;;;;;;;;;5022567;28;20642;-55
2024/01/29 04:31:58;;;;;;;1.80;1.70;;;;;;;;;;5013969;28;20563;-56
2024/01/29 04:34:25;;;;;;;2.10;1.87;;;;;;;;;;5021256;28;20194;-56
2024/01/29 04:36:51;;;;;;;3.13;1.90;;;;;;;;;;5017245;28;20702;-55
2024/01/29 04:39:17;;;;;;;2.10;1.90;;;;;;;;;;5017519;28;20264;-55
2024/01/29 04:41:43;;;;;;;2.00;1.80;;;;;;;;;;5011636;28;20201;-55
2024/01/29 04:44:09;;;;;;;1.97;1.87;;;;;;;;;;5018620;28;20220;-55
2024/01/29 04:46:36;;;;;;;2.57;2.37;;;;;;;;;;5016465;28;20277;-55
2024/01/29 04:49:02;;;;;;;1.90;1.80;;;;;;;;;;5021162;28;20586;-55
2024/01/29 04:51:28;;;;;;;2.07;1.80;;;;;;;;;;5019434;28;20261;-55
2024/01/29 04:53:54;;;;;;;2.60;2.00;;;;;;;;;;5017484;28;20702;-55
2024/01/29 04:56:20;;;;;;;2.20;2.00;;;;;;;;;;5025810;28;20177;-55
2024/01/29 04:58:46;;;;;;;2.23;1.80;;;;;;;;;;5018626;28;20181;-54
2024/01/29 05:01:12;;;;;;;2.60;2.30;;;;;;;;;;5022056;28;20188;-55
2024/01/29 05:03:38;;;;;;;3.43;2.43;;;;;;;;;;5010313;28;20175;-55
2024/01/29 05:06:05;;;;;;;2.23;1.87;;;;;;;;;;5019627;28;20813;-55
2024/01/29 05:08:31;;;;;;;2.30;2.03;;;;;;;;;;5023431;28;20276;-55
2024/01/29 05:10:57;;;;;;;2.97;1.93;;;;;;;;;;5020766;28;20265;-54
2024/01/29 05:13:23;;;;;;;2.40;2.07;;;;;;;;;;5026093;28;20541;-55
2024/01/29 05:15:49;;;;;;;2.90;2.10;;;;;;;;;;5015656;28;20210;-55
2024/01/29 05:18:15;;;;;;;2.50;2.03;;;;;;;;;;5020315;28;20196;-55
2024/01/29 05:20:41;;;;;;;3.03;2.03;;;;;;;;;;5012229;28;20261;-59
2024/01/29 05:23:07;;;;;;;5.70;2.17;;;;;;;;;;5022998;28;20228;-59
2024/01/29 05:25:33;;;;;;;3.57;2.27;;;;;;;;;;5018850;28;20183;-58
2024/01/29 05:27:59;;;;;;;;;;;;;;;;;;5018190;28;20745;-59
2024/01/29 05:30:25;;;;;;;;;;;;;;;;;;5023564;28;19948;-58
2024/01/29 05:32:51;;;;;;;;;;;;;;;;;;5016801;28;20341;-57
2024/01/29 05:35:17;;;;;;;;;;;;;;;;;;5021240;28;19949;-58
2024/01/29 05:37:43;;;;;;;;;;;;;;;;;;5014423;28;19991;-59
2024/01/29 05:40:11;;;;;;;;;;;;;;;;;;5026976;28;19936;-59
2024/01/29 05:42:37;;;;;;;;;;;;;;;;;;5021169;28;19913;-58
2024/01/29 05:45:03;;;;;;;2.50;2.10;;;;;;;;;;5020674;28;19955;-58
2024/01/29 05:47:29;;;;;;;8.03;2.03;;;;;;;;;;5017989;28;20564;-58
2024/01/29 05:49:55;;;;;;;2.40;2.10;;;;;;;;;;5015604;28;20244;-59
2024/01/29 05:52:22;;;;;;;2.37;1.93;;;;;;;;;;5019870;28;20181;-58
2024/01/29 05:54:48;;;;;;;5.33;2.10;;;;;;;;;;5016797;28;20202;-58
2024/01/29 05:57:17;;;;;;;2.00;1.80;;;;;;;;;;5017680;28;20198;-58
2024/01/29 05:59:43;;;;;;;2.37;1.90;;;;;;;;;;5016713;28;21033;-58
2024/01/29 06:02:09;;;;;;;2.67;2.20;;;;;;;;;;5012503;28;20182;-58
2024/01/29 06:04:35;;;;;;;2.53;2.10;;;;;;;;;;5021685;28;20209;-58
2024/01/29 06:07:01;;;;;;;3.00;2.30;;;;;;;;;;5015032;28;20639;-57
2024/01/29 06:09:27;;;;;;;2.77;2.17;;;;;;;;;;5024933;28;20193;-59
2024/01/29 06:11:56;;;;;;;3.03;2.30;;;;;;;;;;5025625;28;20209;-58
2024/01/29 06:14:22;;;;;;;3.57;2.03;;;;;;;;;;5021490;28;20240;-59
2024/01/29 06:16:48;;;;;;;2.60;2.40;;;;;;;;;;5022977;28;20166;-59
2024/01/29 06:19:18;;;;;;;2.23;2.00;;;;;;;;;;5019049;28;20173;-57
2024/01/29 06:21:49;;;;;;;2.50;1.83;;;;;;;;;;5024459;28;20186;-59
2024/01/29 06:24:15;;;;;;;2.80;2.10;;;;;;;;;;5015472;28;20186;-58
2024/01/29 06:26:41;;;;;;;2.70;2.50;;;;;;;;;;5022305;28;20481;-56
2024/01/29 06:29:07;;;;;;;3.43;2.20;;;;;;;;;;5008553;28;20179;-59
2024/01/29 06:31:33;;;;;;;2.90;2.57;;;;;;;;;;5019039;28;20218;-57
2024/01/29 06:34:02;;;;;;;2.37;2.10;;;;;;;;;;5004068;28;20207;-58
2024/01/29 06:36:28;;;;;;;3.43;2.43;;;;;;;;;;5018124;28;20180;-58
2024/01/29 06:38:55;;;;;;;2.80;2.40;;;;;;;;;;5015901;28;20166;-57
2024/01/29 06:41:24;;;;;;;3.37;2.33;;;;;;;;;;5015581;28;20266;-58
2024/01/29 06:43:51;;;;;;;2.63;2.30;;;;;;;;;;5012108;28;20241;-57
2024/01/29 06:46:17;;;;;;;2.77;2.53;;;;;;;;;;5022145;28;20634;-58
2024/01/29 06:48:43;;;;;;;3.63;2.30;;;;;;;;;;5013522;28;20252;-58
2024/01/29 06:51:09;;;;;;;3.03;2.50;;;;;;;;;;5023448;28;20264;-58
2024/01/29 06:53:35;;;;;;;2.73;2.20;;;;;;;;;;5017023;28;20182;-58
2024/01/29 06:56:04;;;;;;;2.23;2.00;;;;;;;;;;5015396;28;20830;-57
2024/01/29 06:58:30;;;;;;;4.20;2.40;;;;;;;;;;5011198;28;20237;-58
2024/01/29 07:00:56;;;;;;;2.83;2.53;;;;;;;;;;5010275;28;20182;-58
2024/01/29 07:03:22;;;;;;;2.50;2.30;;;;;;;;;;5017773;28;20177;-58
2024/01/29 07:05:49;;;;;;;2.30;2.10;;;;;;;;;;5014195;28;20321;-58
2024/01/29 07:08:17;;;;;;;4.70;2.50;;;;;;;;;;5010176;28;20170;-58
2024/01/29 07:10:44;;;;;;;2.87;2.57;;;;;;;;;;5020806;28;20625;-58
2024/01/29 07:13:10;;;;;;;2.50;2.30;;;;;;;;;;5016419;28;20271;-57
2024/01/29 07:15:37;;;;;;;3.23;2.47;;;;;;;;;;5016253;28;20226;-57
2024/01/29 07:18:04;;;;;;;3.40;2.80;;;;;;;;;;5014549;28;20192;-58
2024/01/29 07:20:37;;;;;;;2.60;2.13;;;;;;;;;;5013819;28;20274;-58
2024/01/29 07:23:03;;;;;;;3.03;2.33;;;;;;;;;;5015466;28;20663;-58
2024/01/29 07:25:31;;;;;;;2.60;2.40;;;;;;;;;;5018731;28;20193;-58
2024/01/29 07:27:59;;;;;;;3.00;2.70;;;;;;;;;;5012443;28;20175;-58
2024/01/29 07:30:25;;;;;;;2.60;2.33;;;;;;;;;;5011941;28;20198;-58
2024/01/29 07:32:51;;;;;;;2.60;2.30;;;;;;;;;;5019314;28;20186;-57
2024/01/29 07:35:17;;;;;;;3.67;2.80;;;;;;;;;;5017904;28;20243;-58
2024/01/29 07:37:44;;;;;;;2.83;2.53;;;;;;;;;;5020075;28;20182;-58
2024/01/29 07:40:10;;;;;;;2.63;2.27;;;;;;;;;;5018394;28;20257;-58
2024/01/29 07:42:36;;;;;;;3.00;2.37;;;;;;;;;;5021210;28;20209;-58
2024/01/29 07:45:03;;;;;;;2.90;2.60;;;;;;;;;;5018214;28;20179;-58
2024/01/29 07:47:30;;;;;;;2.80;2.60;;;;;;;;;;5014357;28;20213;-58
2024/01/29 07:49:56;;;;;;;3.10;2.60;;;;;;;;;;5023653;28;20178;-57
2024/01/29 07:52:22;;;;;;;3.27;2.70;;;;;;;;;;5019740;28;20183;-58
2024/01/29 07:54:48;;;;;;;3.40;2.60;;;;;;;;;;5019211;28;20638;-58
2024/01/29 07:57:14;;;;;;;2.70;2.27;;;;;;;;;;5024010;28;20182;-58
2024/01/29 07:59:40;;;;;;;4.87;2.60;;;;;;;;;;5019350;28;20190;-57
2024/01/29 08:02:06;;;;;;;3.03;2.37;;;;;;;;;;5017145;28;20303;-58
2024/01/29 08:04:32;;;;;;;3.23;2.53;;;;;;;;;;5014280;28;20265;-58
2024/01/29 08:06:59;;;;;;;3.20;2.90;;;;;;;;;;5019980;28;20254;-58
2024/01/29 08:09:28;;;;;;;2.80;2.50;;;;;;;;;;5016858;28;20241;-58
2024/01/29 08:11:54;;;;;;;3.57;3.10;;;;;;;;;;5015126;28;20213;-58
2024/01/29 08:14:21;;;;;;;4.87;2.63;;;;;;;;;;5015285;28;20622;-58
2024/01/29 08:16:47;;;;;;;3.73;2.97;;;;;;;;;;5016402;28;20728;-58
2024/01/29 08:19:13;;;;;;;3.20;2.63;;;;;;;;;;5018007;28;20181;-58
2024/01/29 08:21:39;;;;;;;4.30;3.20;;;;;;;;;;5018870;28;20189;-58
2024/01/29 08:24:05;;;;;;;3.00;2.60;;;;;;;;;;5018111;28;20207;-58
2024/01/29 08:26:31;;;;;;;3.40;2.43;;;;;;;;;;5023043;28;20193;-57
2024/01/29 08:28:58;;;;;;;3.83;3.40;;;;;;;;;;5020090;28;20193;-57
2024/01/29 08:31:24;;;;;;;3.97;3.00;;;;;;;;;;5018267;28;20230;-59
2024/01/29 08:33:50;;;;;;;3.10;2.73;;;;;;;;;;5016222;28;20237;-58
2024/01/29 08:36:16;;;;;;;3.83;2.87;;;;;;;;;;5024449;28;20178;-57
2024/01/29 08:38:42;;;;;;;4.80;3.10;;;;;;;;;;5018693;28;20686;-58
2024/01/29 08:41:09;;;;;;;2.63;2.40;;;;;;;;;;5026158;28;20201;-58
2024/01/29 08:43:35;;;;;;;2.77;2.50;;;;;;;;;;5026555;28;20807;-58
2024/01/29 08:46:01;;;;;;;4.90;3.00;;;;;;;;;;5008792;28;20227;-58
2024/01/29 08:48:27;;;;;;;3.60;2.87;;;;;;;;;;5004348;28;20655;-59
2024/01/29 08:50:55;;;;;;;3.07;2.50;;;;;;;;;;5003320;28;20187;-55
2024/01/29 08:53:21;;;;;;;4.57;3.10;;;;;;;;;;4999242;28;20262;-55
2024/01/29 08:55:47;;;;;;;5.17;3.07;;;;;;;;;;5003337;28;20221;-56
2024/01/29 08:58:13;;;;;;;3.23;2.60;;;;;;;;;;5003574;28;20175;-56
2024/01/29 09:00:39;;;;;;;3.90;3.30;;;;;;;;;;5006154;28;20182;-55
2024/01/29 09:03:05;;;;;;;3.63;3.00;;;;;;;;;;4999428;28;20193;-56
2024/01/29 09:05:31;;;;;;;4.93;3.10;;;;;;;;;;5003287;28;20659;-56
2024/01/29 09:07:57;;;;;;;3.30;2.80;;;;;;;;;;4996551;28;20196;-56
2024/01/29 09:10:23;;;;;;;3.60;2.97;;;;;;;;;;4991972;28;20179;-56
2024/01/29 09:12:49;;;;;;;4.00;3.43;;;;;;;;;;4995423;28;20175;-56
2024/01/29 09:15:15;;;;;;;3.10;2.80;;;;;;;;;;4999218;28;20715;-57
2024/01/29 09:17:41;;;;;;;3.50;2.70;;;;;;;;;;5003660;28;20249;-56
2024/01/29 09:20:08;;;;;;;4.27;3.20;;;;;;;;;;4992918;28;20163;-56
2024/01/29 09:22:34;;;;;;;3.63;3.33;;;;;;;;;;4996172;28;20190;-56
2024/01/29 09:25:00;;;;;;;4.33;3.40;;;;;;;;;;4997850;28;20709;-56
2024/01/29 09:27:26;;;;;;;4.00;3.07;;;;;;;;;;4992566;28;20194;-56
2024/01/29 09:29:52;;;;;;;4.90;3.37;;;;;;;;;;5000734;28;20265;-56
2024/01/29 09:32:18;;;;;;;3.37;2.90;;;;;;;;;;5000366;28;20568;-56
2024/01/29 09:34:44;;;;;;;4.03;3.23;;;;;;;;;;4998922;28;20282;-56
2024/01/29 09:37:10;;;;;;;3.70;3.17;;;;;;;;;;4995862;28;20230;-56
2024/01/29 09:39:36;;;;;;;4.33;3.37;;;;;;;;;;5001983;28;20218;-56
2024/01/29 09:42:03;;;;;;;5.80;3.13;;;;;;;;;;4999371;28;20203;-56
2024/01/29 09:44:29;;;;;;;4.50;4.03;;;;;;;;;;4994382;28;20669;-55
2024/01/29 09:46:56;;;;;;;4.60;3.57;;;;;;;;;;5005423;28;20766;-55
2024/01/29 09:49:23;;;;;;;4.50;3.57;;;;;;;;;;5018909;28;20285;-57
2024/01/29 09:51:49;;;;;;;3.30;3.00;;;;;;;;;;5018739;28;20289;-55
2024/01/29 09:54:15;;;;;;;3.73;3.37;;;;;;;;;;5010840;28;20234;-56
2024/01/29 09:56:41;;;;;;;6.43;3.77;;;;;;;;;;5015724;28;20178;-56
2024/01/29 09:59:07;;;;;;;4.07;3.37;;;;;;;;;;5015604;28;20259;-57
2024/01/29 10:01:34;;;;;;;4.00;3.50;;;;;;;;;;5014820;28;20599;-56
2024/01/29 10:04:00;;;;;;;6.70;4.00;;;;;;;;;;5016150;28;20537;-56
2024/01/29 10:06:26;;;;;;;5.10;3.13;;;;;;;;;;5021128;28;20205;-56
2024/01/29 10:08:52;;;;;;;4.63;3.47;;;;;;;;;;5015399;28;20285;-57
2024/01/29 10:11:18;;;;;;;5.07;3.80;;;;;;;;;;5017034;28;20634;-56
2024/01/29 10:13:48;;;;;;;3.73;2.90;;;;;;;;;;5012925;28;20182;-56
2024/01/29 10:16:14;;;;;;;3.60;3.30;;;;;;;;;;5013661;28;20717;-56
2024/01/29 10:18:40;;;;;;;4.53;3.83;;;;;;;;;;5014523;28;20701;-56
2024/01/29 10:21:07;;;;;;;3.43;3.07;;;;;;;;;;5014279;28;20171;-56
2024/01/29 10:23:33;;;;;;;7.00;3.50;;;;;;;;;;5012499;28;20187;-56
2024/01/29 10:26:02;;;;;;;3.83;3.30;;;;;;;;;;5015047;28;20672;-56
2024/01/29 10:28:29;;;;;;;4.07;3.67;;;;;;;;;;5012894;28;20177;-56
2024/01/29 10:30:55;;;;;;;4.07;3.67;;;;;;;;;;5014158;28;20668;-56
2024/01/29 10:33:24;;;;;;;3.77;3.33;;;;;;;;;;5014994;28;20612;-55
2024/01/29 10:35:50;;;;;;;4.90;3.43;;;;;;;;;;5012199;28;20201;-56
2024/01/29 10:38:22;;;;;;;4.50;3.70;;;;;;;;;;5011824;28;20244;-56
2024/01/29 10:40:49;;;;;;;4.33;3.60;;;;;;;;;;5015500;28;20178;-56
2024/01/29 10:43:21;;;;;;;4.53;4.07;;;;;;;;;;5015900;28;20275;-56
2024/01/29 10:45:49;;;;;;;4.07;3.40;;;;;;;;;;5014301;28;20901;-55
2024/01/29 10:48:15;;;;;;;4.13;3.33;;;;;;;;;;5023506;28;20190;-55
2024/01/29 10:50:42;;;;;;;6.27;4.60;;;;;;;;;;5020468;28;20177;-55
2024/01/29 10:53:08;;;;;;;4.13;3.73;;;;;;;;;;5021242;28;20183;-56
2024/01/29 10:55:35;;;;;;;5.23;4.60;;;;;;;;;;5015129;28;20537;-56
2024/01/29 10:58:01;;;;;;;5.50;3.70;;;;;;;;;;5018136;28;20182;-56
2024/01/29 11:00:28;;;;;;;4.87;3.27;;;;;;;;;;5017033;28;20248;-57
2024/01/29 11:02:56;;;;;;;5.50;3.33;;;;;;;;;;5020888;28;20597;-56
2024/01/29 11:05:22;;;;;;;5.07;3.50;;;;;;;;;;5024333;28;20174;-55
2024/01/29 11:07:49;;;;;;;7.77;3.93;;;;;;;;;;5010444;28;20686;-56
2024/01/29 11:10:19;;;;;;;4.30;3.70;;;;;;;;;;5016166;28;20201;-56
2024/01/29 11:12:47;;;;;;;4.87;3.53;;;;;;;;;;5008792;28;20600;-56
2024/01/29 11:15:13;;;;;;;4.47;3.50;;;;;;;;;;5021406;28;20285;-55
2024/01/29 11:17:42;;;;;;;4.43;3.87;;;;;;;;;;5019013;28;20216;-56
2024/01/29 11:20:11;;;;;;;4.77;3.70;;;;;;;;;;5022285;28;20225;-56
2024/01/29 11:22:37;;;;;;;3.90;3.50;;;;;;;;;;5024381;28;20191;-56
2024/01/29 11:25:08;;;;;;;5.37;3.87;;;;;;;;;;5016285;28;20213;-56
2024/01/29 11:27:34;;;;;;;4.90;3.20;;;;;;;;;;5020112;28;20185;-56
2024/01/29 11:30:11;;;;;;;3.97;3.57;;;;;;;;;;5015819;28;20212;-55
2024/01/29 11:32:40;;;;;;;3.93;3.50;;;;;;;;;;5023163;28;20236;-55
2024/01/29 11:35:17;;;;;;;4.20;3.80;;;;;;;;;;5016849;28;20205;-56
2024/01/29 11:37:43;;;;;;;6.27;3.97;;;;;;;;;;5021287;28;20189;-56
2024/01/29 11:40:28;;;;;;;3.97;3.57;;;;;;;;;;5024106;28;20217;-56
2024/01/29 11:42:54;;;;;;;4.70;4.07;;;;;;;;;;5023630;28;20205;-55
2024/01/29 11:45:20;;;;;;;4.60;3.70;;;;;;;;;;5021548;28;20205;-57
2024/01/29 11:47:46;;;;;;;5.97;4.10;;;;;;;;;;5016435;28;20237;-56
2024/01/29 11:50:12;;;;;;;4.60;3.73;;;;;;;;;;5021253;28;20225;-56
2024/01/29 11:52:39;;;;;;;4.87;3.50;;;;;;;;;;5013521;28;20299;-56
2024/01/29 11:55:05;;;;;;;5.47;3.17;;;;;;;;;;5013590;28;20322;-56
2024/01/29 11:57:32;;;;;;;4.93;3.50;;;;;;;;;;5018244;28;20185;-56
2024/01/29 12:00:00;;;;;;;5.10;3.57;;;;;;;;;;5012469;28;20514;-56
2024/01/29 12:02:30;;;;;;;4.83;3.50;;;;;;;;;;5016589;28;20178;-56
2024/01/29 12:04:56;;;;;;;3.60;3.20;;;;;;;;;;5017731;28;20170;-58
2024/01/29 12:07:22;;;;;;;4.30;3.43;;;;;;;;;;5013564;28;20206;-57
2024/01/29 12:09:48;;;;;;;5.37;3.63;;;;;;;;;;5015766;28;20680;-57
2024/01/29 12:12:15;;;;;;;3.77;3.30;;;;;;;;;;5000592;28;20518;-56
2024/01/29 12:14:41;;;;;;;4.60;4.20;;;;;;;;;;5025513;28;20308;-56
2024/01/29 12:17:09;;;;;;;4.07;3.67;;;;;;;;;;5020348;28;20279;-56
2024/01/29 12:19:35;;;;;;;5.00;3.73;;;;;;;;;;5020603;28;20642;-56
2024/01/29 12:22:01;;;;;;;3.53;3.23;;;;;;;;;;5016022;28;20517;-56
2024/01/29 12:24:27;;;;;;;5.33;3.77;;;;;;;;;;5020166;28;20607;-57
2024/01/29 12:26:54;;;;;;;4.33;3.60;;;;;;;;;;5017213;28;20638;-55
2024/01/29 12:29:20;;;;;;;3.93;3.43;;;;;;;;;;5019520;28;20191;-55
2024/01/29 12:31:46;;;;;;;4.70;3.57;;;;;;;;;;5017222;28;20186;-56
2024/01/29 12:34:23;;;;;;;3.60;3.30;;;;;;;;;;5020389;28;20222;-56
2024/01/29 12:36:57;;;;;;;5.20;3.77;;;;;;;;;;5018573;28;20189;-56
2024/01/29 12:39:24;;;;;;;4.43;3.50;;;;;;;;;;5023203;28;20185;-57
2024/01/29 12:41:50;;;;;;;5.20;4.00;;;;;;;;;;5022165;28;20817;-56
2024/01/29 12:44:16;;;;;;;4.43;3.80;;;;;;;;;;5012232;28;20959;-53
2024/01/29 12:46:43;;;;;;;7.97;3.80;;;;;;;;;;5017543;28;20229;-53
2024/01/29 12:49:11;;;;;;;5.17;3.80;;;;;;;;;;5025433;28;20197;-53
2024/01/29 12:51:37;;;;;;;6.27;3.87;;;;;;;;;;5016374;28;20597;-53
2024/01/29 12:54:03;;;;;;;4.53;3.73;;;;;;;;;;5016614;28;20251;-53
2024/01/29 12:56:30;;;;;;;4.80;3.83;;;;;;;;;;5015580;28;20227;-54
2024/01/29 12:58:57;;;;;;;5.83;3.80;;;;;;;;;;5016421;28;20186;-53
2024/01/29 13:01:23;;;;;;;4.23;3.83;;;;;;;;;;5016226;28;20182;-53
2024/01/29 13:03:49;;;;;;;4.73;3.30;;;;;;;;;;5014619;28;20269;-52
2024/01/29 13:06:15;;;;;;;5.07;3.97;;;;;;;;;;5012392;28;20677;-53
2024/01/29 13:08:41;;;;;;;5.20;4.50;;;;;;;;;;5021579;28;20229;-53
2024/01/29 13:11:07;;;;;;;4.20;3.47;;;;;;;;;;5014196;28;20716;-52
2024/01/29 13:13:33;;;;;;;9.90;4.07;;;;;;;;;;5011650;28;20281;-53
2024/01/29 13:15:59;;;;;;;4.63;3.90;;;;;;;;;;5019080;28;20202;-55
2024/01/29 13:18:25;;;;;;;4.33;3.93;;;;;;;;;;5017006;28;20649;-53
2024/01/29 13:20:51;;;;;;;4.00;3.60;;;;;;;;;;5017165;28;20170;-55
2024/01/29 13:23:17;;;;;;;5.40;4.03;;;;;;;;;;5014464;28;20189;-53
2024/01/29 13:25:44;;;;;;;4.07;3.50;;;;;;;;;;5014420;28;20281;-53
2024/01/29 13:28:10;;;;;;;5.97;3.47;;;;;;;;;;5009817;28;20184;-52
2024/01/29 13:30:37;;;;;;;6.97;3.93;;;;;;;;;;5020501;28;20668;-52
2024/01/29 13:33:04;;;;;;;5.03;3.77;;;;;;;;;;5011689;28;20261;-53
2024/01/29 13:35:30;;;;;;;6.67;3.60;;;;;;;;;;5014803;28;20209;-53
2024/01/29 13:37:56;;;;;;;3.73;3.27;;;;;;;;;;5018994;28;20568;-54
2024/01/29 13:40:22;;;;;;;4.57;3.90;;;;;;;;;;5017673;28;20182;-53
2024/01/29 13:42:48;;;;;;;4.13;3.73;;;;;;;;;;5013484;28;20937;-53
2024/01/29 13:45:14;;;;;;;3.43;3.13;;;;;;;;;;5015192;28;20186;-53
2024/01/29 13:47:40;;;;;;;6.60;4.17;;;;;;;;;;5012388;28;20252;-52
2024/01/29 13:50:06;;;;;;;5.93;3.73;;;;;;;;;;5011525;28;20531;-54
2024/01/29 13:52:33;;;;;;;4.90;3.50;;;;;;;;;;5017842;28;20182;-53
2024/01/29 13:54:59;;;;;;;4.17;3.70;;;;;;;;;;5017715;28;20501;-52
2024/01/29 13:57:25;;;;;;;4.63;3.97;;;;;;;;;;5016547;28;20189;-53
2024/01/29 13:59:51;;;;;;;4.83;3.73;;;;;;;;;;5019932;28;20162;-54
2024/01/29 14:02:17;;;;;;;4.00;3.23;;;;;;;;;;5014839;28;20185;-54
2024/01/29 14:04:43;;;;;;;6.57;4.13;;;;;;;;;;5026224;28;20192;-54
2024/01/29 14:07:10;;;;;;;4.30;2.90;;;;;;;;;;5014724;28;20190;-53
2024/01/29 14:09:36;;;;;;;4.03;3.47;;;;;;;;;;5011411;28;20626;-54
2024/01/29 14:12:03;;;;;;;6.33;4.03;;;;;;;;;;5019166;28;20667;-52
2024/01/29 14:14:29;;;;;;;4.73;3.60;;;;;;;;;;5016490;28;20286;-53
2024/01/29 14:16:55;;;;;;;5.10;3.60;;;;;;;;;;5016891;28;20214;-52
2024/01/29 14:19:21;;;;;;;6.07;4.07;;;;;;;;;;5014493;28;20274;-53
2024/01/29 14:21:47;;;;;;;5.10;3.70;;;;;;;;;;5012836;28;20186;-53
2024/01/29 14:24:13;;;;;;;8.50;4.00;;;;;;;;;;5015803;28;20260;-53
2024/01/29 14:26:41;;;;;;;4.53;3.90;;;;;;;;;;5019536;28;20257;-52
2024/01/29 14:29:07;;;;;;;4.43;4.03;;;;;;;;;;5015405;28;20665;-52
2024/01/29 14:31:33;;;;;;;4.77;4.10;;;;;;;;;;5011232;28;20309;-53
2024/01/29 14:33:59;;;;;;;4.53;3.77;;;;;;;;;;5018029;28;20232;-53
2024/01/29 14:36:25;;;;;;;6.03;4.30;;;;;;;;;;5020798;28;20219;-51
2024/01/29 14:38:56;;;;;;;4.87;4.10;;;;;;;;;;5014995;28;20185;-52
2024/01/29 14:41:23;;;;;;;5.47;3.70;;;;;;;;;;5017716;28;20355;-56
2024/01/29 14:43:49;;;;;;;5.33;3.83;;;;;;;;;;5018992;28;20259;-53